sensor_id;sensor_type;location;lat;lon;timestamp;P1;durP1;ratioP1;P2;durP2;ratioP2
7495;SDS011;3789;47.064;15.482;2023-03-23T00:01:33;4.60;;;4.20;;
7495;SDS011;3789;47.064;15.482;2023-03-23T00:04:03;4.90;;;4.27;;
7495;SDS011;3789;47.064;15.482;2023-03-23T00:06:29;4.97;;;4.57;;
7495;SDS011;3789;47.064;15.482;2023-03-23T00:09:00;5.87;;;5.37;;
7495;SDS011;3789;47.064;15.482;2023-03-23T00:11:29;5.60;;;4.90;;
7495;SDS011;3789;47.064;15.482;2023-03-23T00:13:59;5.90;;;5.30;;
7495;SDS011;3789;47.064;15.482;2023-03-23T00:16:27;9.97;;;5.57;;
7495;SDS011;3789;47.064;15.482;2023-03-23T00:19:01;5.73;;;4.83;;
7495;SDS011;3789;47.064;15.482;2023-03-23T00:21:33;7.43;;;5.33;;
7495;SDS011;3789;47.064;15.482;2023-03-23T00:24:05;5.33;;;4.83;;
7495;SDS011;3789;47.064;15.482;2023-03-23T00:26:36;5.47;;;4.97;;
7495;SDS011;3789;47.064;15.482;2023-03-23T00:29:12;5.70;;;5.20;;
7495;SDS011;3789;47.064;15.482;2023-03-23T00:31:45;6.07;;;5.13;;
7495;SDS011;3789;47.064;15.482;2023-03-23T00:34:15;6.17;;;5.50;;
7495;SDS011;3789;47.064;15.482;2023-03-23T00:36:50;6.63;;;5.53;;
7495;SDS011;3789;47.064;15.482;2023-03-23T00:39:19;7.30;;;5.50;;
7495;SDS011;3789;47.064;15.482;2023-03-23T00:41:46;8.73;;;6.07;;
7495;SDS011;3789;47.064;15.482;2023-03-23T00:44:14;6.20;;;5.50;;
7495;SDS011;3789;47.064;15.482;2023-03-23T00:46:46;6.00;;;5.10;;
7495;SDS011;3789;47.064;15.482;2023-03-23T00:49:20;6.43;;;5.37;;
7495;SDS011;3789;47.064;15.482;2023-03-23T00:51:54;7.20;;;5.80;;
7495;SDS011;3789;47.064;15.482;2023-03-23T00:54:23;7.43;;;5.10;;
7495;SDS011;3789;47.064;15.482;2023-03-23T00:56:53;6.23;;;5.63;;
7495;SDS011;3789;47.064;15.482;2023-03-23T00:59:29;5.80;;;5.13;;
7495;SDS011;3789;47.064;15.482;2023-03-23T01:01:58;6.60;;;5.50;;
7495;SDS011;3789;47.064;15.482;2023-03-23T01:04:25;7.17;;;5.97;;
7495;SDS011;3789;47.064;15.482;2023-03-23T01:06:57;6.60;;;5.87;;
7495;SDS011;3789;47.064;15.482;2023-03-23T01:09:27;7.63;;;5.90;;
7495;SDS011;3789;47.064;15.482;2023-03-23T01:11:53;6.40;;;5.57;;
7495;SDS011;3789;47.064;15.482;2023-03-23T01:14:21;6.97;;;5.40;;
7495;SDS011;3789;47.064;15.482;2023-03-23T01:16:49;6.13;;;5.53;;
7495;SDS011;3789;47.064;15.482;2023-03-23T01:19:17;6.23;;;5.57;;
7495;SDS011;3789;47.064;15.482;2023-03-23T01:21:44;6.27;;;5.57;;
7495;SDS011;3789;47.064;15.482;2023-03-23T01:24:11;5.60;;;5.10;;
7495;SDS011;3789;47.064;15.482;2023-03-23T01:26:39;6.53;;;5.80;;
7495;SDS011;3789;47.064;15.482;2023-03-23T01:29:08;7.57;;;5.67;;
7495;SDS011;3789;47.064;15.482;2023-03-23T01:31:36;6.00;;;5.50;;
7495;SDS011;3789;47.064;15.482;2023-03-23T01:34:04;6.67;;;5.70;;
7495;SDS011;3789;47.064;15.482;2023-03-23T01:36:32;9.27;;;6.50;;
7495;SDS011;3789;47.064;15.482;2023-03-23T01:39:02;5.83;;;5.33;;
7495;SDS011;3789;47.064;15.482;2023-03-23T01:41:31;7.27;;;5.83;;
7495;SDS011;3789;47.064;15.482;2023-03-23T01:46:45;6.23;;;5.60;;
7495;SDS011;3789;47.064;15.482;2023-03-23T01:49:21;7.73;;;5.67;;
7495;SDS011;3789;47.064;15.482;2023-03-23T01:52:14;5.17;;;4.67;;
7495;SDS011;3789;47.064;15.482;2023-03-23T01:54:52;6.57;;;5.90;;
7495;SDS011;3789;47.064;15.482;2023-03-23T01:57:24;6.87;;;6.10;;
7495;SDS011;3789;47.064;15.482;2023-03-23T01:59:52;6.07;;;5.50;;
7495;SDS011;3789;47.064;15.482;2023-03-23T02:02:22;5.73;;;5.23;;
7495;SDS011;3789;47.064;15.482;2023-03-23T02:04:55;6.63;;;6.03;;
7495;SDS011;3789;47.064;15.482;2023-03-23T02:07:26;6.30;;;5.70;;
7495;SDS011;3789;47.064;15.482;2023-03-23T02:09:53;6.53;;;5.90;;
7495;SDS011;3789;47.064;15.482;2023-03-23T02:12:22;7.80;;;5.87;;
7495;SDS011;3789;47.064;15.482;2023-03-23T02:14:49;6.23;;;5.63;;
7495;SDS011;3789;47.064;15.482;2023-03-23T02:17:37;6.30;;;5.70;;
7495;SDS011;3789;47.064;15.482;2023-03-23T02:20:30;6.03;;;5.40;;
7495;SDS011;3789;47.064;15.482;2023-03-23T02:35:00;6.07;;;5.43;;
7495;SDS011;3789;47.064;15.482;2023-03-23T02:37:33;5.70;;;5.10;;
7495;SDS011;3789;47.064;15.482;2023-03-23T02:40:24;6.30;;;5.70;;
7495;SDS011;3789;47.064;15.482;2023-03-23T02:46:31;6.20;;;5.53;;
7495;SDS011;3789;47.064;15.482;2023-03-23T02:49:27;6.73;;;6.03;;
7495;SDS011;3789;47.064;15.482;2023-03-23T02:52:14;6.73;;;6.13;;
7495;SDS011;3789;47.064;15.482;2023-03-23T02:55:18;7.93;;;6.10;;
7495;SDS011;3789;47.064;15.482;2023-03-23T02:57:57;6.60;;;5.90;;
7495;SDS011;3789;47.064;15.482;2023-03-23T03:00:48;5.57;;;5.00;;
7495;SDS011;3789;47.064;15.482;2023-03-23T03:03:23;6.00;;;5.40;;
7495;SDS011;3789;47.064;15.482;2023-03-23T03:06:42;6.10;;;5.50;;
7495;SDS011;3789;47.064;15.482;2023-03-23T03:21:04;7.40;;;5.40;;
7495;SDS011;3789;47.064;15.482;2023-03-23T03:23:46;7.03;;;6.00;;
7495;SDS011;3789;47.064;15.482;2023-03-23T03:26:45;6.73;;;5.73;;
7495;SDS011;3789;47.064;15.482;2023-03-23T03:29:54;8.13;;;5.90;;
7495;SDS011;3789;47.064;15.482;2023-03-23T03:33:25;7.43;;;5.87;;
7495;SDS011;3789;47.064;15.482;2023-03-23T03:35:59;6.70;;;5.23;;
7495;SDS011;3789;47.064;15.482;2023-03-23T03:38:53;6.67;;;5.83;;
7495;SDS011;3789;47.064;15.482;2023-03-23T03:41:43;11.43;;;6.07;;
7495;SDS011;3789;47.064;15.482;2023-03-23T03:44:22;6.53;;;5.83;;
7495;SDS011;3789;47.064;15.482;2023-03-23T03:46:52;7.17;;;6.17;;
7495;SDS011;3789;47.064;15.482;2023-03-23T03:49:50;7.40;;;5.93;;
7495;SDS011;3789;47.064;15.482;2023-03-23T03:52:57;7.97;;;6.10;;
7495;SDS011;3789;47.064;15.482;2023-03-23T03:55:48;10.80;;;6.10;;
7495;SDS011;3789;47.064;15.482;2023-03-23T03:58:45;6.20;;;5.00;;
7495;SDS011;3789;47.064;15.482;2023-03-23T04:01:41;8.53;;;6.17;;
7495;SDS011;3789;47.064;15.482;2023-03-23T04:04:10;7.47;;;5.90;;
7495;SDS011;3789;47.064;15.482;2023-03-23T04:06:46;8.87;;;6.40;;
7495;SDS011;3789;47.064;15.482;2023-03-23T04:09:34;8.27;;;6.70;;
7495;SDS011;3789;47.064;15.482;2023-03-23T04:12:06;7.27;;;6.40;;
7495;SDS011;3789;47.064;15.482;2023-03-23T04:15:05;8.97;;;7.07;;
7495;SDS011;3789;47.064;15.482;2023-03-23T04:17:54;8.10;;;6.07;;
7495;SDS011;3789;47.064;15.482;2023-03-23T04:20:25;6.00;;;5.40;;
7495;SDS011;3789;47.064;15.482;2023-03-23T04:22:55;6.83;;;6.13;;
7495;SDS011;3789;47.064;15.482;2023-03-23T04:25:24;9.17;;;6.20;;
7495;SDS011;3789;47.064;15.482;2023-03-23T04:27:55;8.97;;;6.50;;
7495;SDS011;3789;47.064;15.482;2023-03-23T04:30:23;9.73;;;6.63;;
7495;SDS011;3789;47.064;15.482;2023-03-23T04:32:59;7.53;;;6.73;;
7495;SDS011;3789;47.064;15.482;2023-03-23T04:35:27;7.73;;;6.50;;
7495;SDS011;3789;47.064;15.482;2023-03-23T04:37:58;8.67;;;6.70;;
7495;SDS011;3789;47.064;15.482;2023-03-23T04:40:42;7.37;;;6.20;;
7495;SDS011;3789;47.064;15.482;2023-03-23T04:43:21;7.23;;;6.53;;
7495;SDS011;3789;47.064;15.482;2023-03-23T04:45:54;9.00;;;5.50;;
7495;SDS011;3789;47.064;15.482;2023-03-23T04:48:31;6.83;;;6.10;;
7495;SDS011;3789;47.064;15.482;2023-03-23T04:51:00;9.33;;;6.03;;
7495;SDS011;3789;47.064;15.482;2023-03-23T04:53:29;7.87;;;7.07;;
7495;SDS011;3789;47.064;15.482;2023-03-23T04:55:58;7.57;;;6.07;;
7495;SDS011;3789;47.064;15.482;2023-03-23T04:58:27;6.83;;;5.77;;
7495;SDS011;3789;47.064;15.482;2023-03-23T05:01:02;6.30;;;5.70;;
7495;SDS011;3789;47.064;15.482;2023-03-23T05:03:31;9.17;;;6.63;;
7495;SDS011;3789;47.064;15.482;2023-03-23T05:06:01;6.63;;;5.70;;
7495;SDS011;3789;47.064;15.482;2023-03-23T05:08:28;6.47;;;5.70;;
7495;SDS011;3789;47.064;15.482;2023-03-23T05:10:56;6.27;;;5.63;;
7495;SDS011;3789;47.064;15.482;2023-03-23T05:13:27;5.70;;;5.07;;
7495;SDS011;3789;47.064;15.482;2023-03-23T05:15:54;8.40;;;6.63;;
7495;SDS011;3789;47.064;15.482;2023-03-23T05:18:21;9.37;;;6.67;;
7495;SDS011;3789;47.064;15.482;2023-03-23T05:20:47;7.10;;;5.70;;
7495;SDS011;3789;47.064;15.482;2023-03-23T05:23:15;7.90;;;5.87;;
7495;SDS011;3789;47.064;15.482;2023-03-23T05:25:56;7.30;;;6.30;;
7495;SDS011;3789;47.064;15.482;2023-03-23T05:28:29;6.57;;;5.93;;
7495;SDS011;3789;47.064;15.482;2023-03-23T05:30:56;6.77;;;6.03;;
7495;SDS011;3789;47.064;15.482;2023-03-23T05:33:24;6.97;;;6.27;;
7495;SDS011;3789;47.064;15.482;2023-03-23T05:35:52;5.47;;;4.97;;
7495;SDS011;3789;47.064;15.482;2023-03-23T05:38:29;6.47;;;5.87;;
7495;SDS011;3789;47.064;15.482;2023-03-23T05:40:59;5.77;;;5.27;;
7495;SDS011;3789;47.064;15.482;2023-03-23T05:43:27;7.57;;;5.97;;
7495;SDS011;3789;47.064;15.482;2023-03-23T05:45:54;6.20;;;5.57;;
7495;SDS011;3789;47.064;15.482;2023-03-23T05:48:24;7.63;;;6.17;;
7495;SDS011;3789;47.064;15.482;2023-03-23T05:50:57;6.67;;;5.97;;
7495;SDS011;3789;47.064;15.482;2023-03-23T05:53:25;7.33;;;5.90;;
7495;SDS011;3789;47.064;15.482;2023-03-23T05:56:00;8.23;;;6.20;;
7495;SDS011;3789;47.064;15.482;2023-03-23T05:58:29;9.60;;;5.97;;
7495;SDS011;3789;47.064;15.482;2023-03-23T06:00:57;7.93;;;6.00;;
7495;SDS011;3789;47.064;15.482;2023-03-23T06:03:24;8.57;;;6.20;;
7495;SDS011;3789;47.064;15.482;2023-03-23T06:05:51;7.77;;;6.23;;
7495;SDS011;3789;47.064;15.482;2023-03-23T06:08:19;6.20;;;5.60;;
7495;SDS011;3789;47.064;15.482;2023-03-23T06:10:47;7.33;;;6.50;;
7495;SDS011;3789;47.064;15.482;2023-03-23T06:13:15;8.07;;;6.30;;
7495;SDS011;3789;47.064;15.482;2023-03-23T06:15:43;8.10;;;5.67;;
7495;SDS011;3789;47.064;15.482;2023-03-23T06:18:10;7.87;;;6.30;;
7495;SDS011;3789;47.064;15.482;2023-03-23T06:20:39;10.80;;;6.17;;
7495;SDS011;3789;47.064;15.482;2023-03-23T06:23:08;7.03;;;6.30;;
7495;SDS011;3789;47.064;15.482;2023-03-23T06:25:36;6.70;;;6.07;;
7495;SDS011;3789;47.064;15.482;2023-03-23T06:28:06;8.70;;;6.30;;
7495;SDS011;3789;47.064;15.482;2023-03-23T06:30:39;8.30;;;6.50;;
7495;SDS011;3789;47.064;15.482;2023-03-23T06:33:05;8.53;;;6.30;;
7495;SDS011;3789;47.064;15.482;2023-03-23T06:35:35;8.83;;;6.37;;
7495;SDS011;3789;47.064;15.482;2023-03-23T06:38:03;7.50;;;6.07;;
7495;SDS011;3789;47.064;15.482;2023-03-23T06:40:32;6.77;;;6.13;;
7495;SDS011;3789;47.064;15.482;2023-03-23T06:42:59;7.60;;;6.23;;
7495;SDS011;3789;47.064;15.482;2023-03-23T06:45:26;11.10;;;6.10;;
7495;SDS011;3789;47.064;15.482;2023-03-23T06:47:54;8.77;;;6.73;;
7495;SDS011;3789;47.064;15.482;2023-03-23T06:50:22;10.40;;;6.73;;
7495;SDS011;3789;47.064;15.482;2023-03-23T06:52:49;7.37;;;6.63;;
7495;SDS011;3789;47.064;15.482;2023-03-23T06:55:25;6.53;;;5.57;;
7495;SDS011;3789;47.064;15.482;2023-03-23T06:57:55;8.40;;;5.87;;
7495;SDS011;3789;47.064;15.482;2023-03-23T07:00:26;8.30;;;6.47;;
7495;SDS011;3789;47.064;15.482;2023-03-23T07:02:55;8.83;;;6.23;;
7495;SDS011;3789;47.064;15.482;2023-03-23T07:05:23;10.52;;;7.00;;
7495;SDS011;3789;47.064;15.482;2023-03-23T07:07:55;10.93;;;6.57;;
7495;SDS011;3789;47.064;15.482;2023-03-23T07:10:24;7.40;;;6.20;;
7495;SDS011;3789;47.064;15.482;2023-03-23T07:12:54;9.80;;;6.65;;
7495;SDS011;3789;47.064;15.482;2023-03-23T07:15:22;9.13;;;6.68;;
7495;SDS011;3789;47.064;15.482;2023-03-23T07:17:50;8.43;;;6.88;;
7495;SDS011;3789;47.064;15.482;2023-03-23T07:20:17;9.00;;;6.50;;
7495;SDS011;3789;47.064;15.482;2023-03-23T07:22:47;7.40;;;6.10;;
7495;SDS011;3789;47.064;15.482;2023-03-23T07:25:16;10.50;;;7.13;;
7495;SDS011;3789;47.064;15.482;2023-03-23T07:27:45;7.20;;;6.50;;
7495;SDS011;3789;47.064;15.482;2023-03-23T07:30:13;8.10;;;5.82;;
7495;SDS011;3789;47.064;15.482;2023-03-23T07:32:41;7.40;;;5.55;;
7495;SDS011;3789;47.064;15.482;2023-03-23T07:35:09;7.65;;;6.85;;
7495;SDS011;3789;47.064;15.482;2023-03-23T07:37:36;8.13;;;6.32;;
7495;SDS011;3789;47.064;15.482;2023-03-23T07:40:03;8.95;;;6.40;;
7495;SDS011;3789;47.064;15.482;2023-03-23T07:42:45;7.45;;;6.18;;
7495;SDS011;3789;47.064;15.482;2023-03-23T07:45:17;8.57;;;6.60;;
7495;SDS011;3789;47.064;15.482;2023-03-23T07:47:43;7.10;;;6.35;;
7495;SDS011;3789;47.064;15.482;2023-03-23T07:50:11;8.73;;;6.80;;
7495;SDS011;3789;47.064;15.482;2023-03-23T07:52:37;6.97;;;6.28;;
7495;SDS011;3789;47.064;15.482;2023-03-23T07:55:06;8.32;;;6.15;;
7495;SDS011;3789;47.064;15.482;2023-03-23T07:57:50;7.45;;;6.10;;
7495;SDS011;3789;47.064;15.482;2023-03-23T08:00:20;9.95;;;8.70;;
7495;SDS011;3789;47.064;15.482;2023-03-23T08:02:54;13.48;;;10.07;;
7495;SDS011;3789;47.064;15.482;2023-03-23T08:05:24;11.70;;;9.27;;
7495;SDS011;3789;47.064;15.482;2023-03-23T08:07:54;16.17;;;8.95;;
7495;SDS011;3789;47.064;15.482;2023-03-23T08:10:23;10.50;;;9.40;;
7495;SDS011;3789;47.064;15.482;2023-03-23T08:12:52;12.63;;;9.38;;
7495;SDS011;3789;47.064;15.482;2023-03-23T08:15:21;11.40;;;8.88;;
7495;SDS011;3789;47.064;15.482;2023-03-23T08:17:50;13.45;;;9.02;;
7495;SDS011;3789;47.064;15.482;2023-03-23T08:20:19;7.93;;;7.13;;
7495;SDS011;3789;47.064;15.482;2023-03-23T08:22:54;15.95;;;10.23;;
7495;SDS011;3789;47.064;15.482;2023-03-23T08:25:23;11.20;;;10.07;;
7495;SDS011;3789;47.064;15.482;2023-03-23T08:28:01;13.70;;;10.30;;
7495;SDS011;3789;47.064;15.482;2023-03-23T08:30:30;12.98;;;11.30;;
7495;SDS011;3789;47.064;15.482;2023-03-23T08:33:00;14.07;;;9.93;;
7495;SDS011;3789;47.064;15.482;2023-03-23T08:35:28;15.32;;;10.82;;
7495;SDS011;3789;47.064;15.482;2023-03-23T08:37:55;15.75;;;10.35;;
7495;SDS011;3789;47.064;15.482;2023-03-23T08:40:24;14.07;;;9.00;;
7495;SDS011;3789;47.064;15.482;2023-03-23T08:42:53;16.98;;;10.88;;
7495;SDS011;3789;47.064;15.482;2023-03-23T08:45:23;11.73;;;8.55;;
7495;SDS011;3789;47.064;15.482;2023-03-23T08:47:54;14.25;;;10.40;;
7495;SDS011;3789;47.064;15.482;2023-03-23T08:50:23;11.40;;;10.13;;
7495;SDS011;3789;47.064;15.482;2023-03-23T08:52:53;11.02;;;9.27;;
7495;SDS011;3789;47.064;15.482;2023-03-23T08:55:21;13.80;;;9.68;;
7495;SDS011;3789;47.064;15.482;2023-03-23T08:57:49;14.85;;;9.63;;
7495;SDS011;3789;47.064;15.482;2023-03-23T09:00:18;15.40;;;9.45;;
7495;SDS011;3789;47.064;15.482;2023-03-23T09:02:48;15.13;;;9.93;;
7495;SDS011;3789;47.064;15.482;2023-03-23T09:05:19;13.77;;;9.50;;
7495;SDS011;3789;47.064;15.482;2023-03-23T09:07:50;14.23;;;9.43;;
7495;SDS011;3789;47.064;15.482;2023-03-23T09:10:19;14.43;;;10.27;;
7495;SDS011;3789;47.064;15.482;2023-03-23T09:12:48;16.60;;;10.37;;
7495;SDS011;3789;47.064;15.482;2023-03-23T09:15:16;15.83;;;9.23;;
7495;SDS011;3789;47.064;15.482;2023-03-23T09:17:47;13.10;;;9.90;;
7495;SDS011;3789;47.064;15.482;2023-03-23T09:20:20;10.53;;;9.20;;
7495;SDS011;3789;47.064;15.482;2023-03-23T09:22:51;19.00;;;9.53;;
7495;SDS011;3789;47.064;15.482;2023-03-23T09:25:20;12.83;;;9.13;;
7495;SDS011;3789;47.064;15.482;2023-03-23T09:27:51;13.90;;;8.97;;
7495;SDS011;3789;47.064;15.482;2023-03-23T09:30:28;10.57;;;9.37;;
7495;SDS011;3789;47.064;15.482;2023-03-23T09:33:02;12.30;;;9.37;;
7495;SDS011;3789;47.064;15.482;2023-03-23T09:35:31;12.20;;;7.70;;
7495;SDS011;3789;47.064;15.482;2023-03-23T09:37:59;8.63;;;7.20;;
7495;SDS011;3789;47.064;15.482;2023-03-23T09:40:33;11.03;;;8.43;;
7495;SDS011;3789;47.064;15.482;2023-03-23T09:49:19;12.47;;;8.57;;
7495;SDS011;3789;47.064;15.482;2023-03-23T09:52:17;12.60;;;8.23;;
7495;SDS011;3789;47.064;15.482;2023-03-23T09:55:07;6.32;;;5.28;;
7495;SDS011;3789;47.064;15.482;2023-03-23T09:57:42;8.60;;;5.93;;
7495;SDS011;3789;47.064;15.482;2023-03-23T10:00:39;9.10;;;5.97;;
7495;SDS011;3789;47.064;15.482;2023-03-23T10:03:17;5.47;;;4.97;;
7495;SDS011;3789;47.064;15.482;2023-03-23T10:05:54;14.77;;;8.18;;
7495;SDS011;3789;47.064;15.482;2023-03-23T10:08:24;8.52;;;5.57;;
7495;SDS011;3789;47.064;15.482;2023-03-23T10:13:57;9.40;;;7.68;;
7495;SDS011;3789;47.064;15.482;2023-03-23T10:16:56;10.13;;;7.10;;
7495;SDS011;3789;47.064;15.482;2023-03-23T10:25:41;7.78;;;6.68;;
7495;SDS011;3789;47.064;15.482;2023-03-23T10:28:17;9.95;;;6.50;;
7495;SDS011;3789;47.064;15.482;2023-03-23T10:30:57;9.18;;;7.50;;
7495;SDS011;3789;47.064;15.482;2023-03-23T10:33:37;12.20;;;7.55;;
7495;SDS011;3789;47.064;15.482;2023-03-23T10:39:14;8.82;;;7.00;;
7495;SDS011;3789;47.064;15.482;2023-03-23T10:42:05;10.25;;;6.72;;
7495;SDS011;3789;47.064;15.482;2023-03-23T10:44:34;13.00;;;8.90;;
7495;SDS011;3789;47.064;15.482;2023-03-23T10:47:04;7.85;;;7.05;;
7495;SDS011;3789;47.064;15.482;2023-03-23T10:49:40;9.10;;;6.68;;
7495;SDS011;3789;47.064;15.482;2023-03-23T10:52:42;6.30;;;5.45;;
7495;SDS011;3789;47.064;15.482;2023-03-23T10:55:14;5.80;;;5.10;;
7495;SDS011;3789;47.064;15.482;2023-03-23T10:58:10;11.38;;;8.38;;
7495;SDS011;3789;47.064;15.482;2023-03-23T11:01:03;6.13;;;5.50;;
7495;SDS011;3789;47.064;15.482;2023-03-23T11:03:43;7.60;;;6.78;;
7495;SDS011;3789;47.064;15.482;2023-03-23T11:06:24;7.82;;;7.05;;
7495;SDS011;3789;47.064;15.482;2023-03-23T11:08:58;6.72;;;6.00;;
7495;SDS011;3789;47.064;15.482;2023-03-23T11:11:43;7.93;;;6.78;;
7495;SDS011;3789;47.064;15.482;2023-03-23T11:14:29;7.43;;;6.72;;
7495;SDS011;3789;47.064;15.482;2023-03-23T11:17:21;10.00;;;7.70;;
7495;SDS011;3789;47.064;15.482;2023-03-23T11:19:50;8.27;;;7.45;;
7495;SDS011;3789;47.064;15.482;2023-03-23T11:25:03;8.00;;;6.25;;
7495;SDS011;3789;47.064;15.482;2023-03-23T11:27:30;9.57;;;7.47;;
7495;SDS011;3789;47.064;15.482;2023-03-23T11:30:01;6.72;;;6.13;;
7495;SDS011;3789;47.064;15.482;2023-03-23T11:32:35;8.98;;;7.43;;
7495;SDS011;3789;47.064;15.482;2023-03-23T11:35:04;8.02;;;7.22;;
7495;SDS011;3789;47.064;15.482;2023-03-23T11:37:47;7.78;;;6.97;;
7495;SDS011;3789;47.064;15.482;2023-03-23T11:40:43;8.02;;;7.22;;
7495;SDS011;3789;47.064;15.482;2023-03-23T11:43:22;6.50;;;5.90;;
7495;SDS011;3789;47.064;15.482;2023-03-23T11:49:03;9.75;;;7.25;;
7495;SDS011;3789;47.064;15.482;2023-03-23T11:51:45;7.47;;;6.78;;
7495;SDS011;3789;47.064;15.482;2023-03-23T11:54:30;7.25;;;6.55;;
7495;SDS011;3789;47.064;15.482;2023-03-23T11:57:00;9.43;;;7.32;;
7495;SDS011;3789;47.064;15.482;2023-03-23T11:59:51;7.03;;;5.85;;
7495;SDS011;3789;47.064;15.482;2023-03-23T12:05:51;7.57;;;6.88;;
7495;SDS011;3789;47.064;15.482;2023-03-23T12:08:51;8.30;;;7.15;;
7495;SDS011;3789;47.064;15.482;2023-03-23T12:20:32;6.57;;;5.88;;
7495;SDS011;3789;47.064;15.482;2023-03-23T12:23:24;7.05;;;6.30;;
7495;SDS011;3789;47.064;15.482;2023-03-23T12:26:31;6.35;;;5.75;;
7495;SDS011;3789;47.064;15.482;2023-03-23T12:29:25;7.75;;;6.68;;
7495;SDS011;3789;47.064;15.482;2023-03-23T12:41:02;5.18;;;4.68;;
7495;SDS011;3789;47.064;15.482;2023-03-23T12:46:56;7.95;;;7.20;;
7495;SDS011;3789;47.064;15.482;2023-03-23T12:49:46;9.00;;;7.30;;
7495;SDS011;3789;47.064;15.482;2023-03-23T12:58:17;8.68;;;7.80;;
7495;SDS011;3789;47.064;15.482;2023-03-23T13:01:10;5.93;;;5.32;;
7495;SDS011;3789;47.064;15.482;2023-03-23T13:03:49;7.00;;;6.35;;
7495;SDS011;3789;47.064;15.482;2023-03-23T13:06:43;7.88;;;6.60;;
7495;SDS011;3789;47.064;15.482;2023-03-23T13:09:25;6.30;;;5.80;;
7495;SDS011;3789;47.064;15.482;2023-03-23T13:12:17;8.02;;;7.18;;
7495;SDS011;3789;47.064;15.482;2023-03-23T13:17:45;7.50;;;6.80;;
7495;SDS011;3789;47.064;15.482;2023-03-23T13:20:51;7.75;;;6.95;;
7495;SDS011;3789;47.064;15.482;2023-03-23T13:23:29;6.90;;;6.10;;
7495;SDS011;3789;47.064;15.482;2023-03-23T13:26:20;9.40;;;7.75;;
7495;SDS011;3789;47.064;15.482;2023-03-23T13:29:05;10.02;;;7.80;;
7495;SDS011;3789;47.064;15.482;2023-03-23T13:31:39;6.75;;;6.15;;
7495;SDS011;3789;47.064;15.482;2023-03-23T13:34:25;9.77;;;7.50;;
7495;SDS011;3789;47.064;15.482;2023-03-23T13:36:56;8.55;;;7.75;;
7495;SDS011;3789;47.064;15.482;2023-03-23T13:39:29;11.45;;;7.90;;
7495;SDS011;3789;47.064;15.482;2023-03-23T13:50:53;7.80;;;7.10;;
7495;SDS011;3789;47.064;15.482;2023-03-23T13:53:46;7.28;;;6.50;;
7495;SDS011;3789;47.064;15.482;2023-03-23T13:56:18;7.75;;;6.93;;
7495;SDS011;3789;47.064;15.482;2023-03-23T13:59:32;9.35;;;7.88;;
7495;SDS011;3789;47.064;15.482;2023-03-23T14:05:11;9.02;;;8.10;;
7495;SDS011;3789;47.064;15.482;2023-03-23T14:08:02;7.70;;;7.00;;
7495;SDS011;3789;47.064;15.482;2023-03-23T14:10:44;6.93;;;5.60;;
7495;SDS011;3789;47.064;15.482;2023-03-23T14:19:28;7.78;;;7.00;;
7495;SDS011;3789;47.064;15.482;2023-03-23T14:21:57;8.43;;;7.63;;
7495;SDS011;3789;47.064;15.482;2023-03-23T14:24:33;5.97;;;4.97;;
7495;SDS011;3789;47.064;15.482;2023-03-23T14:27:12;5.93;;;5.32;;
7495;SDS011;3789;47.064;15.482;2023-03-23T14:29:58;7.68;;;5.75;;
7495;SDS011;3789;47.064;15.482;2023-03-23T14:32:28;6.00;;;5.40;;
7495;SDS011;3789;47.064;15.482;2023-03-23T14:34:58;6.32;;;5.03;;
7495;SDS011;3789;47.064;15.482;2023-03-23T14:37:30;7.18;;;5.88;;
7495;SDS011;3789;47.064;15.482;2023-03-23T14:39:58;6.40;;;5.80;;
7495;SDS011;3789;47.064;15.482;2023-03-23T14:42:33;6.30;;;5.25;;
7495;SDS011;3789;47.064;15.482;2023-03-23T14:45:03;6.70;;;6.07;;
7495;SDS011;3789;47.064;15.482;2023-03-23T14:47:36;7.97;;;6.30;;
7495;SDS011;3789;47.064;15.482;2023-03-23T14:50:24;7.43;;;5.60;;
7495;SDS011;3789;47.064;15.482;2023-03-23T14:53:00;4.95;;;4.45;;
7495;SDS011;3789;47.064;15.482;2023-03-23T14:56:18;4.13;;;3.80;;
7495;SDS011;3789;47.064;15.482;2023-03-23T14:58:49;4.82;;;4.35;;
7495;SDS011;3789;47.064;15.482;2023-03-23T15:01:28;4.20;;;3.80;;
7495;SDS011;3789;47.064;15.482;2023-03-23T15:04:12;4.68;;;4.13;;
7495;SDS011;3789;47.064;15.482;2023-03-23T15:06:55;3.88;;;3.58;;
7495;SDS011;3789;47.064;15.482;2023-03-23T15:09:29;4.10;;;3.50;;
7495;SDS011;3789;47.064;15.482;2023-03-23T15:12:00;4.85;;;3.60;;
7495;SDS011;3789;47.064;15.482;2023-03-23T15:14:32;4.40;;;3.95;;
7495;SDS011;3789;47.064;15.482;2023-03-23T15:17:09;5.35;;;4.85;;
7495;SDS011;3789;47.064;15.482;2023-03-23T15:19:43;3.85;;;3.55;;
7495;SDS011;3789;47.064;15.482;2023-03-23T15:22:27;4.22;;;3.83;;
7495;SDS011;3789;47.064;15.482;2023-03-23T15:25:17;4.57;;;4.18;;
7495;SDS011;3789;47.064;15.482;2023-03-23T15:30:54;4.05;;;3.75;;
7495;SDS011;3789;47.064;15.482;2023-03-23T15:33:33;5.07;;;4.50;;
7495;SDS011;3789;47.064;15.482;2023-03-23T15:36:05;4.25;;;3.63;;
7495;SDS011;3789;47.064;15.482;2023-03-23T15:38:42;6.70;;;5.00;;
7495;SDS011;3789;47.064;15.482;2023-03-23T15:41:32;4.82;;;4.20;;
7495;SDS011;3789;47.064;15.482;2023-03-23T15:44:11;4.10;;;3.70;;
7495;SDS011;3789;47.064;15.482;2023-03-23T15:46:49;4.50;;;3.47;;
7495;SDS011;3789;47.064;15.482;2023-03-23T15:49:20;5.07;;;3.78;;
7495;SDS011;3789;47.064;15.482;2023-03-23T15:51:50;4.70;;;4.20;;
7495;SDS011;3789;47.064;15.482;2023-03-23T15:54:20;7.47;;;5.13;;
7495;SDS011;3789;47.064;15.482;2023-03-23T15:56:47;5.35;;;4.43;;
7495;SDS011;3789;47.064;15.482;2023-03-23T15:59:15;5.45;;;4.65;;
7495;SDS011;3789;47.064;15.482;2023-03-23T16:01:44;4.63;;;4.22;;
7495;SDS011;3789;47.064;15.482;2023-03-23T16:04:17;5.93;;;5.32;;
7495;SDS011;3789;47.064;15.482;2023-03-23T16:06:46;4.32;;;3.92;;
7495;SDS011;3789;47.064;15.482;2023-03-23T16:09:17;5.55;;;4.95;;
7495;SDS011;3789;47.064;15.482;2023-03-23T16:11:49;4.45;;;4.05;;
7495;SDS011;3789;47.064;15.482;2023-03-23T16:14:20;4.22;;;3.65;;
7495;SDS011;3789;47.064;15.482;2023-03-23T16:16:49;4.80;;;4.28;;
7495;SDS011;3789;47.064;15.482;2023-03-23T16:19:19;4.40;;;3.65;;
7495;SDS011;3789;47.064;15.482;2023-03-23T16:21:52;4.20;;;3.40;;
7495;SDS011;3789;47.064;15.482;2023-03-23T16:24:20;5.57;;;4.50;;
7495;SDS011;3789;47.064;15.482;2023-03-23T16:26:47;4.07;;;3.70;;
7495;SDS011;3789;47.064;15.482;2023-03-23T16:29:15;4.07;;;3.70;;
7495;SDS011;3789;47.064;15.482;2023-03-23T16:32:05;5.50;;;3.90;;
7495;SDS011;3789;47.064;15.482;2023-03-23T16:34:35;5.05;;;3.97;;
7495;SDS011;3789;47.064;15.482;2023-03-23T16:37:11;4.72;;;3.80;;
7495;SDS011;3789;47.064;15.482;2023-03-23T16:39:39;5.70;;;3.80;;
7495;SDS011;3789;47.064;15.482;2023-03-23T16:42:08;5.70;;;5.18;;
7495;SDS011;3789;47.064;15.482;2023-03-23T16:44:38;6.88;;;6.28;;
7495;SDS011;3789;47.064;15.482;2023-03-23T16:47:15;6.07;;;4.97;;
7495;SDS011;3789;47.064;15.482;2023-03-23T16:49:50;5.88;;;5.28;;
7495;SDS011;3789;47.064;15.482;2023-03-23T16:52:22;5.47;;;4.97;;
7495;SDS011;3789;47.064;15.482;2023-03-23T16:54:57;4.32;;;3.92;;
7495;SDS011;3789;47.064;15.482;2023-03-23T16:57:32;4.88;;;4.47;;
7495;SDS011;3789;47.064;15.482;2023-03-23T17:00:05;4.57;;;4.18;;
7495;SDS011;3789;47.064;15.482;2023-03-23T17:02:36;6.22;;;5.63;;
7495;SDS011;3789;47.064;15.482;2023-03-23T17:05:09;6.63;;;6.03;;
7495;SDS011;3789;47.064;15.482;2023-03-23T17:07:42;7.20;;;6.20;;
7495;SDS011;3789;47.064;15.482;2023-03-23T17:10:12;6.68;;;5.70;;
7495;SDS011;3789;47.064;15.482;2023-03-23T17:12:42;5.20;;;4.70;;
7495;SDS011;3789;47.064;15.482;2023-03-23T17:15:15;5.50;;;5.00;;
7495;SDS011;3789;47.064;15.482;2023-03-23T17:17:50;5.55;;;5.00;;
7495;SDS011;3789;47.064;15.482;2023-03-23T17:20:20;5.22;;;4.72;;
7495;SDS011;3789;47.064;15.482;2023-03-23T17:22:51;5.32;;;4.80;;
7495;SDS011;3789;47.064;15.482;2023-03-23T17:25:20;6.30;;;5.65;;
7495;SDS011;3789;47.064;15.482;2023-03-23T17:27:47;5.63;;;5.10;;
7495;SDS011;3789;47.064;15.482;2023-03-23T17:30:33;6.40;;;5.80;;
7495;SDS011;3789;47.064;15.482;2023-03-23T17:33:02;7.50;;;6.20;;
7495;SDS011;3789;47.064;15.482;2023-03-23T17:35:40;6.38;;;5.60;;